sensor_id;sensor_type;location;lat;lon;timestamp;P1;durP1;ratioP1;P2;durP2;ratioP2
64291;SDS011;50628;51.008;13.658;2023-04-06T00:01:03;7.77;;;3.23;;
64291;SDS011;50628;51.008;13.658;2023-04-06T00:06:07;4.47;;;3.63;;
64291;SDS011;50628;51.008;13.658;2023-04-06T00:11:09;6.77;;;4.30;;
64291;SDS011;50628;51.008;13.658;2023-04-06T00:16:11;6.23;;;4.07;;
64291;SDS011;50628;51.008;13.658;2023-04-06T00:21:14;9.60;;;3.90;;
64291;SDS011;50628;51.008;13.658;2023-04-06T00:26:16;7.33;;;3.33;;
64291;SDS011;50628;51.008;13.658;2023-04-06T00:31:21;8.67;;;3.20;;
64291;SDS011;50628;51.008;13.658;2023-04-06T00:36:25;4.73;;;3.13;;
64291;SDS011;50628;51.008;13.658;2023-04-06T00:41:27;4.00;;;2.70;;
64291;SDS011;50628;51.008;13.658;2023-04-06T00:46:29;5.37;;;3.07;;
64291;SDS011;50628;51.008;13.658;2023-04-06T00:51:32;4.93;;;3.07;;
64291;SDS011;50628;51.008;13.658;2023-04-06T00:56:34;4.93;;;2.60;;
64291;SDS011;50628;51.008;13.658;2023-04-06T01:01:37;8.30;;;2.80;;
64291;SDS011;50628;51.008;13.658;2023-04-06T01:06:55;4.47;;;3.50;;
64291;SDS011;50628;51.008;13.658;2023-04-06T01:12:03;6.97;;;3.53;;
64291;SDS011;50628;51.008;13.658;2023-04-06T01:17:06;4.27;;;3.27;;
64291;SDS011;50628;51.008;13.658;2023-04-06T01:22:13;9.20;;;4.10;;
64291;SDS011;50628;51.008;13.658;2023-04-06T01:27:22;4.77;;;3.27;;
64291;SDS011;50628;51.008;13.658;2023-04-06T01:32:39;6.80;;;3.33;;
64291;SDS011;50628;51.008;13.658;2023-04-06T01:37:45;6.93;;;2.67;;
64291;SDS011;50628;51.008;13.658;2023-04-06T01:42:55;6.97;;;3.07;;
64291;SDS011;50628;51.008;13.658;2023-04-06T01:48:06;6.43;;;3.10;;
64291;SDS011;50628;51.008;13.658;2023-04-06T01:53:10;5.23;;;3.03;;
64291;SDS011;50628;51.008;13.658;2023-04-06T01:58:15;3.80;;;2.90;;
64291;SDS011;50628;51.008;13.658;2023-04-06T02:03:17;7.37;;;2.97;;
64291;SDS011;50628;51.008;13.658;2023-04-06T02:08:21;4.93;;;3.33;;
64291;SDS011;50628;51.008;13.658;2023-04-06T02:13:23;5.97;;;3.47;;
64291;SDS011;50628;51.008;13.658;2023-04-06T02:18:27;5.70;;;4.17;;
64291;SDS011;50628;51.008;13.658;2023-04-06T02:23:31;6.90;;;4.20;;
64291;SDS011;50628;51.008;13.658;2023-04-06T02:28:33;10.13;;;3.67;;
64291;SDS011;50628;51.008;13.658;2023-04-06T02:33:35;9.40;;;4.07;;
64291;SDS011;50628;51.008;13.658;2023-04-06T02:38:39;4.73;;;3.50;;
64291;SDS011;50628;51.008;13.658;2023-04-06T02:43:41;8.17;;;4.10;;
64291;SDS011;50628;51.008;13.658;2023-04-06T02:49:04;10.00;;;8.40;;
64291;SDS011;50628;51.008;13.658;2023-04-06T02:54:09;8.13;;;4.93;;
64291;SDS011;50628;51.008;13.658;2023-04-06T02:59:12;10.23;;;5.13;;
64291;SDS011;50628;51.008;13.658;2023-04-06T03:04:20;21.60;;;8.30;;
64291;SDS011;50628;51.008;13.658;2023-04-06T03:09:28;7.13;;;5.77;;
64291;SDS011;50628;51.008;13.658;2023-04-06T03:14:30;10.83;;;4.73;;
64291;SDS011;50628;51.008;13.658;2023-04-06T03:19:32;8.20;;;4.63;;
64291;SDS011;50628;51.008;13.658;2023-04-06T03:24:37;13.23;;;4.40;;
64291;SDS011;50628;51.008;13.658;2023-04-06T03:29:39;7.73;;;4.40;;
64291;SDS011;50628;51.008;13.658;2023-04-06T03:34:44;10.47;;;4.43;;
64291;SDS011;50628;51.008;13.658;2023-04-06T03:39:47;9.13;;;5.27;;
64291;SDS011;50628;51.008;13.658;2023-04-06T03:44:55;6.90;;;4.20;;
64291;SDS011;50628;51.008;13.658;2023-04-06T03:49:57;15.07;;;6.03;;
64291;SDS011;50628;51.008;13.658;2023-04-06T03:55:01;8.37;;;4.40;;
64291;SDS011;50628;51.008;13.658;2023-04-06T04:00:04;14.73;;;4.77;;
64291;SDS011;50628;51.008;13.658;2023-04-06T04:05:13;10.60;;;3.93;;
64291;SDS011;50628;51.008;13.658;2023-04-06T04:10:16;7.70;;;4.00;;
64291;SDS011;50628;51.008;13.658;2023-04-06T04:15:18;12.47;;;4.20;;
64291;SDS011;50628;51.008;13.658;2023-04-06T04:20:22;10.87;;;5.77;;
64291;SDS011;50628;51.008;13.658;2023-04-06T04:25:25;19.53;;;12.03;;
64291;SDS011;50628;51.008;13.658;2023-04-06T04:30:27;19.43;;;6.53;;
64291;SDS011;50628;51.008;13.658;2023-04-06T04:35:29;13.30;;;5.67;;
64291;SDS011;50628;51.008;13.658;2023-04-06T04:40:33;20.27;;;5.73;;
64291;SDS011;50628;51.008;13.658;2023-04-06T04:45:41;13.73;;;4.47;;
64291;SDS011;50628;51.008;13.658;2023-04-06T04:51:08;11.60;;;4.67;;
64291;SDS011;50628;51.008;13.658;2023-04-06T04:56:35;24.80;;;7.03;;
64291;SDS011;50628;51.008;13.658;2023-04-06T05:01:57;9.83;;;4.63;;
64291;SDS011;50628;51.008;13.658;2023-04-06T05:07:09;14.30;;;5.40;;
64291;SDS011;50628;51.008;13.658;2023-04-06T05:12:15;22.37;;;7.50;;
64291;SDS011;50628;51.008;13.658;2023-04-06T05:17:36;9.97;;;6.20;;
64291;SDS011;50628;51.008;13.658;2023-04-06T05:22:40;13.23;;;6.87;;
64291;SDS011;50628;51.008;13.658;2023-04-06T05:27:46;12.23;;;7.33;;
64291;SDS011;50628;51.008;13.658;2023-04-06T05:33:00;27.67;;;9.33;;
64291;SDS011;50628;51.008;13.658;2023-04-06T05:38:10;19.50;;;7.10;;
64291;SDS011;50628;51.008;13.658;2023-04-06T05:43:14;22.30;;;9.60;;
64291;SDS011;50628;51.008;13.658;2023-04-06T05:48:20;16.30;;;7.30;;
64291;SDS011;50628;51.008;13.658;2023-04-06T05:53:22;14.37;;;6.60;;
64291;SDS011;50628;51.008;13.658;2023-04-06T05:58:31;10.17;;;5.80;;
64291;SDS011;50628;51.008;13.658;2023-04-06T06:03:34;24.90;;;10.40;;
64291;SDS011;50628;51.008;13.658;2023-04-06T06:08:36;17.17;;;7.97;;
64291;SDS011;50628;51.008;13.658;2023-04-06T06:13:46;15.87;;;6.67;;
64291;SDS011;50628;51.008;13.658;2023-04-06T06:18:49;22.93;;;7.53;;
64291;SDS011;50628;51.008;13.658;2023-04-06T06:23:51;17.03;;;6.53;;
64291;SDS011;50628;51.008;13.658;2023-04-06T06:28:56;25.67;;;9.40;;
64291;SDS011;50628;51.008;13.658;2023-04-06T06:33:58;16.77;;;7.17;;
64291;SDS011;50628;51.008;13.658;2023-04-06T06:39:01;14.23;;;7.27;;
64291;SDS011;50628;51.008;13.658;2023-04-06T06:44:06;10.63;;;5.57;;
64291;SDS011;50628;51.008;13.658;2023-04-06T06:49:09;11.20;;;5.90;;
64291;SDS011;50628;51.008;13.658;2023-04-06T06:54:12;13.30;;;5.63;;
64291;SDS011;50628;51.008;13.658;2023-04-06T06:59:16;21.40;;;7.53;;
64291;SDS011;50628;51.008;13.658;2023-04-06T07:04:18;15.17;;;6.97;;
64291;SDS011;50628;51.008;13.658;2023-04-06T07:09:20;10.50;;;5.37;;
64291;SDS011;50628;51.008;13.658;2023-04-06T07:14:23;14.73;;;6.70;;
64291;SDS011;50628;51.008;13.658;2023-04-06T07:19:26;8.70;;;6.03;;
64291;SDS011;50628;51.008;13.658;2023-04-06T07:24:28;13.37;;;6.10;;
64291;SDS011;50628;51.008;13.658;2023-04-06T07:29:32;13.20;;;6.30;;
64291;SDS011;50628;51.008;13.658;2023-04-06T07:34:34;19.83;;;6.47;;
64291;SDS011;50628;51.008;13.658;2023-04-06T07:39:36;14.53;;;6.10;;
64291;SDS011;50628;51.008;13.658;2023-04-06T07:44:40;18.80;;;5.60;;
64291;SDS011;50628;51.008;13.658;2023-04-06T07:49:44;12.93;;;5.37;;
64291;SDS011;50628;51.008;13.658;2023-04-06T07:54:47;9.87;;;5.17;;
64291;SDS011;50628;51.008;13.658;2023-04-06T07:59:51;13.97;;;5.03;;
64291;SDS011;50628;51.008;13.658;2023-04-06T08:04:53;43.57;;;7.37;;
64291;SDS011;50628;51.008;13.658;2023-04-06T08:09:55;11.57;;;4.90;;
64291;SDS011;50628;51.008;13.658;2023-04-06T08:14:58;20.20;;;13.53;;
64291;SDS011;50628;51.008;13.658;2023-04-06T08:20:00;11.30;;;4.40;;
64291;SDS011;50628;51.008;13.658;2023-04-06T08:25:04;20.10;;;5.47;;
64291;SDS011;50628;51.008;13.658;2023-04-06T08:30:08;10.10;;;3.73;;
64291;SDS011;50628;51.008;13.658;2023-04-06T08:35:10;7.07;;;4.20;;
64291;SDS011;50628;51.008;13.658;2023-04-06T08:40:13;10.10;;;3.90;;
64291;SDS011;50628;51.008;13.658;2023-04-06T08:45:16;9.70;;;4.60;;
64291;SDS011;50628;51.008;13.658;2023-04-06T08:50:21;12.37;;;4.47;;
64291;SDS011;50628;51.008;13.658;2023-04-06T08:55:25;15.20;;;4.50;;
64291;SDS011;50628;51.008;13.658;2023-04-06T09:00:28;10.90;;;3.83;;
64291;SDS011;50628;51.008;13.658;2023-04-06T09:05:31;9.37;;;4.20;;
64291;SDS011;50628;51.008;13.658;2023-04-06T09:10:33;8.37;;;3.87;;
64291;SDS011;50628;51.008;13.658;2023-04-06T09:15:37;10.83;;;3.63;;
64291;SDS011;50628;51.008;13.658;2023-04-06T09:20:39;7.83;;;3.60;;
64291;SDS011;50628;51.008;13.658;2023-04-06T09:25:41;5.97;;;3.63;;
64291;SDS011;50628;51.008;13.658;2023-04-06T09:30:48;9.47;;;3.37;;
64291;SDS011;50628;51.008;13.658;2023-04-06T09:35:50;3.57;;;2.47;;
64291;SDS011;50628;51.008;13.658;2023-04-06T09:40:52;7.47;;;3.57;;
64291;SDS011;50628;51.008;13.658;2023-04-06T09:45:56;7.97;;;3.10;;
64291;SDS011;50628;51.008;13.658;2023-04-06T09:50:59;6.07;;;3.10;;
64291;SDS011;50628;51.008;13.658;2023-04-06T09:56:04;5.97;;;3.30;;
64291;SDS011;50628;51.008;13.658;2023-04-06T10:01:13;4.60;;;3.13;;
64291;SDS011;50628;51.008;13.658;2023-04-06T10:06:19;7.70;;;3.20;;
64291;SDS011;50628;51.008;13.658;2023-04-06T10:11:25;7.03;;;3.93;;
64291;SDS011;50628;51.008;13.658;2023-04-06T10:16:29;6.67;;;3.47;;
64291;SDS011;50628;51.008;13.658;2023-04-06T10:21:32;15.77;;;3.83;;
64291;SDS011;50628;51.008;13.658;2023-04-06T10:26:34;10.67;;;3.20;;
64291;SDS011;50628;51.008;13.658;2023-04-06T10:31:42;7.07;;;4.20;;
64291;SDS011;50628;51.008;13.658;2023-04-06T10:36:45;8.40;;;3.47;;
64291;SDS011;50628;51.008;13.658;2023-04-06T10:41:46;14.20;;;3.27;;
64291;SDS011;50628;51.008;13.658;2023-04-06T10:46:54;10.10;;;3.80;;
64291;SDS011;50628;51.008;13.658;2023-04-06T10:51:57;7.07;;;3.60;;
64291;SDS011;50628;51.008;13.658;2023-04-06T10:56:59;9.03;;;3.50;;
64291;SDS011;50628;51.008;13.658;2023-04-06T11:02:02;10.43;;;3.40;;
64291;SDS011;50628;51.008;13.658;2023-04-06T11:07:04;6.23;;;3.27;;
64291;SDS011;50628;51.008;13.658;2023-04-06T11:12:06;5.47;;;2.80;;
64291;SDS011;50628;51.008;13.658;2023-04-06T11:17:10;6.43;;;3.17;;
64291;SDS011;50628;51.008;13.658;2023-04-06T11:22:12;5.37;;;3.20;;
64291;SDS011;50628;51.008;13.658;2023-04-06T11:27:14;10.53;;;3.33;;
64291;SDS011;50628;51.008;13.658;2023-04-06T11:32:21;3.70;;;2.83;;
64291;SDS011;50628;51.008;13.658;2023-04-06T11:37:26;5.97;;;2.80;;
64291;SDS011;50628;51.008;13.658;2023-04-06T11:42:29;7.77;;;3.07;;
64291;SDS011;50628;51.008;13.658;2023-04-06T11:47:33;5.73;;;3.07;;
64291;SDS011;50628;51.008;13.658;2023-04-06T11:52:36;5.67;;;2.87;;
64291;SDS011;50628;51.008;13.658;2023-04-06T11:57:40;4.70;;;2.60;;
64291;SDS011;50628;51.008;13.658;2023-04-06T12:02:45;7.40;;;3.40;;
64291;SDS011;50628;51.008;13.658;2023-04-06T12:07:47;3.90;;;2.70;;
64291;SDS011;50628;51.008;13.658;2023-04-06T12:12:49;3.43;;;2.47;;
64291;SDS011;50628;51.008;13.658;2023-04-06T12:17:52;13.57;;;4.40;;
64291;SDS011;50628;51.008;13.658;2023-04-06T12:22:54;3.97;;;3.07;;
64291;SDS011;50628;51.008;13.658;2023-04-06T12:27:56;5.57;;;2.93;;
64291;SDS011;50628;51.008;13.658;2023-04-06T12:33:00;11.37;;;3.93;;
64291;SDS011;50628;51.008;13.658;2023-04-06T12:38:02;5.60;;;3.17;;
64291;SDS011;50628;51.008;13.658;2023-04-06T12:43:04;4.00;;;3.13;;
64291;SDS011;50628;51.008;13.658;2023-04-06T12:48:07;5.60;;;2.50;;
64291;SDS011;50628;51.008;13.658;2023-04-06T12:53:10;8.20;;;3.63;;
64291;SDS011;50628;51.008;13.658;2023-04-06T12:58:11;5.70;;;3.07;;
64291;SDS011;50628;51.008;13.658;2023-04-06T13:03:15;4.00;;;2.73;;
64291;SDS011;50628;51.008;13.658;2023-04-06T13:08:18;4.23;;;2.43;;
64291;SDS011;50628;51.008;13.658;2023-04-06T13:13:22;3.50;;;3.00;;
64291;SDS011;50628;51.008;13.658;2023-04-06T13:18:26;6.23;;;3.70;;
64291;SDS011;50628;51.008;13.658;2023-04-06T13:23:28;4.10;;;3.60;;
64291;SDS011;50628;51.008;13.658;2023-04-06T13:28:31;7.53;;;3.03;;
64291;SDS011;50628;51.008;13.658;2023-04-06T13:33:35;4.33;;;2.97;;
64291;SDS011;50628;51.008;13.658;2023-04-06T13:38:37;5.50;;;2.70;;
64291;SDS011;50628;51.008;13.658;2023-04-06T13:43:40;7.10;;;3.07;;
64291;SDS011;50628;51.008;13.658;2023-04-06T13:48:43;5.87;;;3.70;;
64291;SDS011;50628;51.008;13.658;2023-04-06T13:53:45;6.93;;;3.30;;
64291;SDS011;50628;51.008;13.658;2023-04-06T13:58:47;7.80;;;3.40;;
64291;SDS011;50628;51.008;13.658;2023-04-06T14:03:50;12.07;;;9.07;;
64291;SDS011;50628;51.008;13.658;2023-04-06T14:08:52;8.33;;;3.87;;
64291;SDS011;50628;51.008;13.658;2023-04-06T14:13:54;4.13;;;2.80;;
64291;SDS011;50628;51.008;13.658;2023-04-06T14:18:57;5.33;;;3.40;;
64291;SDS011;50628;51.008;13.658;2023-04-06T14:23:59;6.90;;;4.03;;
64291;SDS011;50628;51.008;13.658;2023-04-06T14:29:02;4.60;;;3.50;;
64291;SDS011;50628;51.008;13.658;2023-04-06T14:34:05;11.43;;;6.20;;
64291;SDS011;50628;51.008;13.658;2023-04-06T14:39:07;7.87;;;4.27;;
64291;SDS011;50628;51.008;13.658;2023-04-06T14:44:10;3.90;;;3.20;;
64291;SDS011;50628;51.008;13.658;2023-04-06T14:49:14;5.47;;;3.23;;
64291;SDS011;50628;51.008;13.658;2023-04-06T14:54:16;6.33;;;3.73;;
64291;SDS011;50628;51.008;13.658;2023-04-06T14:59:18;8.37;;;4.40;;
64291;SDS011;50628;51.008;13.658;2023-04-06T15:04:21;35.40;;;25.47;;
64291;SDS011;50628;51.008;13.658;2023-04-06T15:09:23;4.73;;;3.37;;
64291;SDS011;50628;51.008;13.658;2023-04-06T15:14:25;3.20;;;2.90;;
64291;SDS011;50628;51.008;13.658;2023-04-06T15:19:28;8.43;;;3.87;;
64291;SDS011;50628;51.008;13.658;2023-04-06T15:24:30;12.67;;;4.33;;
64291;SDS011;50628;51.008;13.658;2023-04-06T15:29:32;11.20;;;4.27;;
64291;SDS011;50628;51.008;13.658;2023-04-06T15:34:35;15.80;;;7.27;;
64291;SDS011;50628;51.008;13.658;2023-04-06T15:39:37;4.27;;;2.90;;
64291;SDS011;50628;51.008;13.658;2023-04-06T15:44:39;3.83;;;2.97;;
64291;SDS011;50628;51.008;13.658;2023-04-06T15:49:42;9.37;;;4.30;;
64291;SDS011;50628;51.008;13.658;2023-04-06T15:54:44;4.90;;;2.77;;
64291;SDS011;50628;51.008;13.658;2023-04-06T15:59:46;4.67;;;3.20;;
64291;SDS011;50628;51.008;13.658;2023-04-06T16:04:50;7.33;;;3.63;;
64291;SDS011;50628;51.008;13.658;2023-04-06T16:09:55;9.23;;;3.23;;
64291;SDS011;50628;51.008;13.658;2023-04-06T16:14:57;4.87;;;2.80;;
64291;SDS011;50628;51.008;13.658;2023-04-06T16:20:01;6.77;;;3.30;;
64291;SDS011;50628;51.008;13.658;2023-04-06T16:25:04;7.93;;;4.20;;
64291;SDS011;50628;51.008;13.658;2023-04-06T16:30:06;8.40;;;3.30;;
64291;SDS011;50628;51.008;13.658;2023-04-06T16:35:11;8.90;;;3.60;;
64291;SDS011;50628;51.008;13.658;2023-04-06T16:40:13;6.30;;;3.13;;
64291;SDS011;50628;51.008;13.658;2023-04-06T16:45:15;4.53;;;3.03;;
64291;SDS011;50628;51.008;13.658;2023-04-06T16:50:18;6.93;;;2.70;;
64291;SDS011;50628;51.008;13.658;2023-04-06T16:55:20;23.47;;;5.70;;
64291;SDS011;50628;51.008;13.658;2023-04-06T17:00:22;11.30;;;5.17;;
64291;SDS011;50628;51.008;13.658;2023-04-06T17:05:25;7.20;;;3.60;;
64291;SDS011;50628;51.008;13.658;2023-04-06T17:10:27;8.37;;;3.20;;
64291;SDS011;50628;51.008;13.658;2023-04-06T17:15:29;6.40;;;4.53;;
64291;SDS011;50628;51.008;13.658;2023-04-06T17:20:32;9.43;;;4.03;;
64291;SDS011;50628;51.008;13.658;2023-04-06T17:25:35;7.77;;;3.30;;
64291;SDS011;50628;51.008;13.658;2023-04-06T17:30:38;8.47;;;3.40;;
64291;SDS011;50628;51.008;13.658;2023-04-06T17:35:43;5.87;;;3.50;;
64291;SDS011;50628;51.008;13.658;2023-04-06T17:40:45;5.77;;;3.70;;
64291;SDS011;50628;51.008;13.658;2023-04-06T17:45:47;8.00;;;2.93;;
64291;SDS011;50628;51.008;13.658;2023-04-06T17:50:51;7.90;;;3.53;;
64291;SDS011;50628;51.008;13.658;2023-04-06T17:55:53;7.93;;;3.70;;
64291;SDS011;50628;51.008;13.658;2023-04-06T18:00:55;7.50;;;3.13;;
64291;SDS011;50628;51.008;13.658;2023-04-06T18:05:58;7.50;;;2.97;;
64291;SDS011;50628;51.008;13.658;2023-04-06T18:11:13;7.97;;;4.80;;
64291;SDS011;50628;51.008;13.658;2023-04-06T18:16:17;7.43;;;3.90;;
64291;SDS011;50628;51.008;13.658;2023-04-06T18:21:22;12.80;;;3.77;;
64291;SDS011;50628;51.008;13.658;2023-04-06T18:26:23;16.17;;;5.90;;
64291;SDS011;50628;51.008;13.658;2023-04-06T18:31:25;14.40;;;7.23;;
64291;SDS011;50628;51.008;13.658;2023-04-06T18:36:29;10.60;;;6.27;;
64291;SDS011;50628;51.008;13.658;2023-04-06T18:41:31;18.43;;;7.07;;
64291;SDS011;50628;51.008;13.658;2023-04-06T18:46:33;10.67;;;6.93;;
64291;SDS011;50628;51.008;13.658;2023-04-06T18:51:36;12.10;;;7.97;;
64291;SDS011;50628;51.008;13.658;2023-04-06T18:56:41;9.33;;;6.43;;
64291;SDS011;50628;51.008;13.658;2023-04-06T19:01:42;11.67;;;7.20;;
64291;SDS011;50628;51.008;13.658;2023-04-06T19:06:51;12.03;;;8.43;;
64291;SDS011;50628;51.008;13.658;2023-04-06T19:11:54;10.03;;;7.77;;
64291;SDS011;50628;51.008;13.658;2023-04-06T19:16:56;12.23;;;7.20;;
64291;SDS011;50628;51.008;13.658;2023-04-06T19:22:00;12.37;;;7.30;;
64291;SDS011;50628;51.008;13.658;2023-04-06T19:27:02;11.97;;;6.37;;
64291;SDS011;50628;51.008;13.658;2023-04-06T19:32:04;10.47;;;6.87;;
64291;SDS011;50628;51.008;13.658;2023-04-06T19:37:11;13.30;;;8.17;;
64291;SDS011;50628;51.008;13.658;2023-04-06T19:42:13;10.43;;;7.30;;
64291;SDS011;50628;51.008;13.658;2023-04-06T19:47:15;13.87;;;8.43;;
64291;SDS011;50628;51.008;13.658;2023-04-06T19:52:18;12.67;;;8.87;;
64291;SDS011;50628;51.008;13.658;2023-04-06T19:57:21;15.83;;;8.97;;
64291;SDS011;50628;51.008;13.658;2023-04-06T20:02:25;13.53;;;8.43;;
64291;SDS011;50628;51.008;13.658;2023-04-06T20:07:28;13.00;;;9.03;;
64291;SDS011;50628;51.008;13.658;2023-04-06T20:12:30;12.53;;;7.80;;
64291;SDS011;50628;51.008;13.658;2023-04-06T20:17:32;10.00;;;6.73;;
64291;SDS011;50628;51.008;13.658;2023-04-06T20:22:35;9.90;;;6.37;;
64291;SDS011;50628;51.008;13.658;2023-04-06T20:27:37;23.60;;;13.57;;
64291;SDS011;50628;51.008;13.658;2023-04-06T20:32:39;23.67;;;13.83;;
64291;SDS011;50628;51.008;13.658;2023-04-06T20:37:42;18.50;;;12.43;;
64291;SDS011;50628;51.008;13.658;2023-04-06T20:42:44;14.17;;;11.10;;
64291;SDS011;50628;51.008;13.658;2023-04-06T20:47:49;17.43;;;11.33;;
64291;SDS011;50628;51.008;13.658;2023-04-06T20:52:54;17.53;;;10.97;;
64291;SDS011;50628;51.008;13.658;2023-04-06T20:57:55;18.33;;;11.20;;
64291;SDS011;50628;51.008;13.658;2023-04-06T21:02:57;15.60;;;10.30;;
64291;SDS011;50628;51.008;13.658;2023-04-06T21:08:01;13.03;;;9.50;;
64291;SDS011;50628;51.008;13.658;2023-04-06T21:13:02;20.47;;;11.63;;
64291;SDS011;50628;51.008;13.658;2023-04-06T21:18:04;16.50;;;10.80;;
64291;SDS011;50628;51.008;13.658;2023-04-06T21:23:08;16.33;;;10.77;;
64291;SDS011;50628;51.008;13.658;2023-04-06T21:28:10;14.87;;;11.33;;
64291;SDS011;50628;51.008;13.658;2023-04-06T21:33:11;35.63;;;13.97;;
64291;SDS011;50628;51.008;13.658;2023-04-06T21:38:15;16.80;;;12.50;;
64291;SDS011;50628;51.008;13.658;2023-04-06T21:43:16;17.73;;;11.93;;
64291;SDS011;50628;51.008;13.658;2023-04-06T21:48:18;17.07;;;12.23;;
64291;SDS011;50628;51.008;13.658;2023-04-06T21:53:21;16.70;;;12.90;;
64291;SDS011;50628;51.008;13.658;2023-04-06T21:58:23;16.73;;;11.07;;
64291;SDS011;50628;51.008;13.658;2023-04-06T22:03:25;11.73;;;9.23;;
64291;SDS011;50628;51.008;13.658;2023-04-06T22:08:29;11.83;;;8.90;;
64291;SDS011;50628;51.008;13.658;2023-04-06T22:13:31;15.27;;;11.10;;
64291;SDS011;50628;51.008;13.658;2023-04-06T22:18:32;17.83;;;12.50;;
64291;SDS011;50628;51.008;13.658;2023-04-06T22:23:36;17.87;;;12.57;;
64291;SDS011;50628;51.008;13.658;2023-04-06T22:28:41;20.00;;;11.47;;
64291;SDS011;50628;51.008;13.658;2023-04-06T22:33:43;15.43;;;10.27;;
64291;SDS011;50628;51.008;13.658;2023-04-06T22:38:46;13.90;;;9.47;;
64291;SDS011;50628;51.008;13.658;2023-04-06T22:43:50;12.50;;;9.17;;
64291;SDS011;50628;51.008;13.658;2023-04-06T22:48:51;10.53;;;8.47;;
64291;SDS011;50628;51.008;13.658;2023-04-06T22:53:55;11.57;;;7.40;;
64291;SDS011;50628;51.008;13.658;2023-04-06T22:58:56;14.60;;;8.63;;
64291;SDS011;50628;51.008;13.658;2023-04-06T23:03:58;11.57;;;8.53;;
64291;SDS011;50628;51.008;13.658;2023-04-06T23:09:01;10.33;;;7.57;;
64291;SDS011;50628;51.008;13.658;2023-04-06T23:14:03;10.10;;;7.83;;
64291;SDS011;50628;51.008;13.658;2023-04-06T23:19:05;11.23;;;8.33;;
64291;SDS011;50628;51.008;13.658;2023-04-06T23:24:08;11.57;;;8.00;;
64291;SDS011;50628;51.008;13.658;2023-04-06T23:29:10;9.37;;;7.83;;
64291;SDS011;50628;51.008;13.658;2023-04-06T23:34:12;10.03;;;7.43;;
64291;SDS011;50628;51.008;13.658;2023-04-06T23:39:15;10.17;;;7.10;;
64291;SDS011;50628;51.008;13.658;2023-04-06T23:44:17;10.80;;;6.37;;
64291;SDS011;50628;51.008;13.658;2023-04-06T23:49:19;16.93;;;11.27;;
64291;SDS011;50628;51.008;13.658;2023-04-06T23:54:22;11.27;;;7.73;;
64291;SDS011;50628;51.008;13.658;2023-04-06T23:59:24;10.27;;;8.07;;
